PWSweather.com
Personal Weather Stations
Station Observations
ISTOCKPO4
Cheadle HulmeGB SK8 6NZ

Cheadle HulmeGB SK8 6NZ

Lat: 53.363783, Lon: -2.1948438

Elevation: 261

Station Type: Davis VP2 with Daytime FARS

http://www.cheadlehulmeweather.co.uk

High Low Average
Temperature 59.9°F15.5°C 43.5°F6.4°C 50.6°F10.3°C
Dew Point 54.3°F12.4°C 41.4°F5.2°C 47.9°F8.8°C
Winds 11.0 mph 17.7 kmh Calm Calm 5.0 mph SE8.0 kmh SE
Wind Gusts 21.0 mph33.8 kmh 1.0 mph1.6 kmh 11.0 mph17.7 kmh
Humidity 95% 81% 91%
Pressure 29.36 in994.2 mb 29.21 in989.2 mb -
Precipitation 0.36 in9.1 mm - -
Hour Temp Dew Point Humidity Winds Wind Gusts Pressure Precip Precip Rate Daily Precip Total
12:00 AM 43.5°F6.4°C 41.4°F5.2°C 92% 6.0 mph E9.7 kmh E 12.0 mph19.3 kmh 29.30 in992.2 mb 0.01 in0.3 mm 0.00 in0.0 mm 0.01 in0.3 mm
12:15 AM 43.5°F6.4°C 41.4°F5.2°C 92% 5.0 mph E8.0 kmh E 13.0 mph20.9 kmh 29.30 in992.2 mb 0.01 in0.3 mm 0.00 in0.0 mm 0.01 in0.3 mm
12:30 AM 43.5°F6.4°C 41.4°F5.2°C 92% 6.0 mph E9.7 kmh E 10.0 mph16.1 kmh 29.29 in991.9 mb 0.01 in0.3 mm 0.00 in0.0 mm 0.01 in0.3 mm
12:45 AM 43.7°F6.5°C 41.5°F5.3°C 92% 5.0 mph ESE8.0 kmh ESE 11.0 mph17.7 kmh 29.29 in991.9 mb 0.01 in0.3 mm 0.00 in0.0 mm 0.01 in0.3 mm
01:00 AM 43.9°F6.6°C 41.7°F5.4°C 92% 3.0 mph E4.8 kmh E 9.0 mph14.5 kmh 29.29 in991.9 mb 0.03 in0.8 mm 0.03 in0.8 mm 0.03 in0.8 mm
01:15 AM 43.9°F6.6°C 42.0°F5.6°C 93% 3.0 mph E4.8 kmh E 6.0 mph9.7 kmh 29.28 in991.5 mb 0.04 in1.0 mm 0.04 in1.0 mm 0.05 in1.3 mm
01:30 AM 43.9°F6.6°C 42.0°F5.6°C 93% 4.0 mph E6.4 kmh E 9.0 mph14.5 kmh 29.27 in991.2 mb 0.06 in1.5 mm 0.08 in2.0 mm 0.07 in1.8 mm
01:45 AM 44.1°F6.7°C 42.2°F5.7°C 93% 4.0 mph E6.4 kmh E 8.0 mph12.9 kmh 29.27 in991.2 mb 0.09 in2.3 mm 0.12 in3.0 mm 0.10 in2.5 mm
02:00 AM 44.2°F6.8°C 42.3°F5.7°C 93% 3.0 mph ENE4.8 kmh ENE 8.0 mph12.9 kmh 29.26 in990.9 mb 0.08 in2.0 mm 0.00 in0.0 mm 0.11 in2.8 mm
02:15 AM 44.1°F6.7°C 42.2°F5.7°C 93% 2.0 mph ENE3.2 kmh ENE 4.0 mph6.4 kmh 29.26 in990.9 mb 0.07 in1.8 mm 0.00 in0.0 mm 0.12 in3.0 mm
02:30 AM 44.1°F6.7°C 42.4°F5.8°C 94% 2.0 mph E3.2 kmh E 5.0 mph8.0 kmh 29.25 in990.5 mb 0.08 in2.0 mm 0.04 in1.0 mm 0.15 in3.8 mm
02:45 AM 44.2°F6.8°C 42.6°F5.9°C 94% 3.0 mph E4.8 kmh E 6.0 mph9.7 kmh 29.25 in990.5 mb 0.07 in1.8 mm 0.00 in0.0 mm 0.17 in4.3 mm
03:00 AM 44.2°F6.8°C 42.6°F5.9°C 94% 2.0 mph ENE3.2 kmh ENE 3.0 mph4.8 kmh 29.24 in990.2 mb 0.07 in1.8 mm 0.00 in0.0 mm 0.18 in4.6 mm
03:15 AM 44.2°F6.8°C 42.6°F5.9°C 94% 2.0 mph ENE3.2 kmh ENE 5.0 mph8.0 kmh 29.24 in990.2 mb 0.07 in1.8 mm 0.00 in0.0 mm 0.19 in4.8 mm
03:30 AM 44.2°F6.8°C 42.6°F5.9°C 94% 2.0 mph ENE3.2 kmh ENE 4.0 mph6.4 kmh 29.23 in989.8 mb 0.05 in1.3 mm 0.00 in0.0 mm 0.20 in5.1 mm
03:45 AM 44.2°F6.8°C 42.6°F5.9°C 94% 1.0 mph ENE1.6 kmh ENE 3.0 mph4.8 kmh 29.23 in989.8 mb 0.04 in1.0 mm 0.00 in0.0 mm 0.21 in5.3 mm
04:00 AM 44.4°F6.9°C 42.8°F6.0°C 94% 1.0 mph ENE1.6 kmh ENE 3.0 mph4.8 kmh 29.22 in989.5 mb 0.04 in1.0 mm 0.00 in0.0 mm 0.22 in5.6 mm
04:15 AM 44.4°F6.9°C 42.8°F6.0°C 94% 1.0 mph ENE1.6 kmh ENE 2.0 mph3.2 kmh 29.22 in989.5 mb 0.04 in1.0 mm 0.00 in0.0 mm 0.23 in5.8 mm
04:30 AM 44.8°F7.1°C 43.2°F6.2°C 94% 1.0 mph NE1.6 kmh NE 3.0 mph4.8 kmh 29.22 in989.5 mb 0.03 in0.8 mm 0.00 in0.0 mm 0.23 in5.8 mm
04:45 AM 45.0°F7.2°C 43.6°F6.4°C 95% Calm Calm 1.0 mph1.6 kmh 29.22 in989.5 mb 0.02 in0.5 mm 0.00 in0.0 mm 0.23 in5.8 mm
05:00 AM 45.7°F7.6°C 44.3°F6.8°C 95% 2.0 mph SE3.2 kmh SE 7.0 mph11.3 kmh 29.21 in989.2 mb 0.02 in0.5 mm 0.00 in0.0 mm 0.24 in6.1 mm
05:15 AM 46.9°F8.3°C 45.6°F7.6°C 95% 2.0 mph SE3.2 kmh SE 4.0 mph6.4 kmh 29.21 in989.2 mb 0.01 in0.3 mm 0.00 in0.0 mm 0.24 in6.1 mm
05:30 AM 47.7°F8.7°C 46.3°F7.9°C 95% 2.0 mph SSE3.2 kmh SSE 5.0 mph8.0 kmh 29.21 in989.2 mb 0.01 in0.3 mm 0.00 in0.0 mm 0.24 in6.1 mm
05:45 AM 48.6°F9.2°C 47.2°F8.4°C 95% 4.0 mph SSE6.4 kmh SSE 9.0 mph14.5 kmh 29.21 in989.2 mb 0.01 in0.3 mm 0.00 in0.0 mm 0.24 in6.1 mm
06:00 AM 49.3°F9.6°C 47.9°F8.8°C 95% 3.0 mph SSE4.8 kmh SSE 5.0 mph8.0 kmh 29.21 in989.2 mb 0.00 in0.0 mm 0.00 in0.0 mm 0.24 in6.1 mm
06:15 AM 49.5°F9.7°C 48.1°F8.9°C 95% 6.0 mph S9.7 kmh S 12.0 mph19.3 kmh 29.21 in989.2 mb 0.00 in0.0 mm 0.00 in0.0 mm 0.24 in6.1 mm
06:30 AM 49.6°F9.8°C 48.3°F9.1°C 95% 6.0 mph SSE9.7 kmh SSE 13.0 mph20.9 kmh 29.21 in989.2 mb 0.00 in0.0 mm 0.00 in0.0 mm 0.24 in6.1 mm
06:45 AM 49.6°F9.8°C 48.3°F9.1°C 95% 6.0 mph S9.7 kmh S 10.0 mph16.1 kmh 29.22 in989.5 mb 0.00 in0.0 mm 0.00 in0.0 mm 0.24 in6.1 mm
07:00 AM 49.8°F9.9°C 48.4°F9.1°C 95% 5.0 mph S8.0 kmh S 9.0 mph14.5 kmh 29.22 in989.5 mb 0.00 in0.0 mm 0.00 in0.0 mm 0.24 in6.1 mm
07:15 AM 49.8°F9.9°C 48.4°F9.1°C 95% 5.0 mph SSE8.0 kmh SSE 9.0 mph14.5 kmh 29.22 in989.5 mb 0.00 in0.0 mm 0.00 in0.0 mm 0.24 in6.1 mm
07:30 AM 50.4°F10.2°C 49.0°F9.4°C 95% 4.0 mph SSE6.4 kmh SSE 8.0 mph12.9 kmh 29.22 in989.5 mb 0.00 in0.0 mm 0.00 in0.0 mm 0.24 in6.1 mm
07:45 AM 50.4°F10.2°C 49.0°F9.4°C 95% 3.0 mph SSE4.8 kmh SSE 7.0 mph11.3 kmh 29.22 in989.5 mb 0.00 in0.0 mm 0.00 in0.0 mm 0.24 in6.1 mm
08:00 AM 50.7°F10.4°C 49.3°F9.6°C 95% 6.0 mph SSE9.7 kmh SSE 12.0 mph19.3 kmh 29.23 in989.8 mb 0.03 in0.8 mm 0.04 in1.0 mm 0.27 in6.9 mm
08:15 AM 51.1°F10.6°C 49.7°F9.8°C 95% 5.0 mph SSE8.0 kmh SSE 11.0 mph17.7 kmh 29.22 in989.5 mb 0.05 in1.3 mm 0.08 in2.0 mm 0.29 in7.4 mm
08:30 AM 51.1°F10.6°C 49.7°F9.8°C 95% 5.0 mph S8.0 kmh S 11.0 mph17.7 kmh 29.23 in989.8 mb 0.07 in1.8 mm 0.08 in2.0 mm 0.31 in7.9 mm
08:45 AM 51.3°F10.7°C 49.9°F9.9°C 95% 4.0 mph SSE6.4 kmh SSE 8.0 mph12.9 kmh 29.23 in989.8 mb 0.07 in1.8 mm 0.00 in0.0 mm 0.31 in7.9 mm
09:00 AM 51.6°F10.9°C 50.2°F10.1°C 95% 5.0 mph SSE8.0 kmh SSE 13.0 mph20.9 kmh 29.22 in989.5 mb 0.04 in1.0 mm 0.00 in0.0 mm 0.31 in7.9 mm
09:15 AM 52.3°F11.3°C 51.0°F10.6°C 95% 5.0 mph SSE8.0 kmh SSE 10.0 mph16.1 kmh 29.22 in989.5 mb 0.02 in0.5 mm 0.00 in0.0 mm 0.31 in7.9 mm
09:30 AM 53.2°F11.8°C 51.8°F11.0°C 95% 6.0 mph S9.7 kmh S 12.0 mph19.3 kmh 29.23 in989.8 mb 0.00 in0.0 mm 0.00 in0.0 mm 0.31 in7.9 mm
09:45 AM 53.4°F11.9°C 52.0°F11.1°C 95% 5.0 mph SSE8.0 kmh SSE 12.0 mph19.3 kmh 29.23 in989.8 mb 0.00 in0.0 mm 0.00 in0.0 mm 0.31 in7.9 mm
10:00 AM 53.2°F11.8°C 51.8°F11.0°C 95% 6.0 mph SSE9.7 kmh SSE 12.0 mph19.3 kmh 29.22 in989.5 mb 0.00 in0.0 mm 0.00 in0.0 mm 0.31 in7.9 mm
10:15 AM 54.0°F12.2°C 52.6°F11.4°C 95% 5.0 mph SSE8.0 kmh SSE 10.0 mph16.1 kmh 29.22 in989.5 mb 0.00 in0.0 mm 0.00 in0.0 mm 0.31 in7.9 mm
10:30 AM 54.9°F12.7°C 53.5°F11.9°C 95% 6.0 mph SE9.7 kmh SE 11.0 mph17.7 kmh 29.22 in989.5 mb 0.00 in0.0 mm 0.00 in0.0 mm 0.31 in7.9 mm
10:45 AM 54.7°F12.6°C 53.0°F11.7°C 94% 9.0 mph SE14.5 kmh SE 15.0 mph24.1 kmh 29.23 in989.8 mb 0.00 in0.0 mm 0.00 in0.0 mm 0.31 in7.9 mm
11:00 AM 55.0°F12.8°C 53.3°F11.8°C 94% 6.0 mph SSE9.7 kmh SSE 11.0 mph17.7 kmh 29.23 in989.8 mb 0.00 in0.0 mm 0.00 in0.0 mm 0.31 in7.9 mm
11:15 AM 56.5°F13.6°C 54.2°F12.3°C 92% 9.0 mph S14.5 kmh S 19.0 mph30.6 kmh 29.24 in990.2 mb 0.00 in0.0 mm 0.00 in0.0 mm 0.31 in7.9 mm
11:30 AM 55.9°F13.3°C 53.0°F11.7°C 90% 11.0 mph S17.7 kmh S 21.0 mph33.8 kmh 29.24 in990.2 mb 0.00 in0.0 mm 0.00 in0.0 mm 0.31 in7.9 mm
11:45 AM 57.2°F14.0°C 54.3°F12.4°C 90% 9.0 mph SSE14.5 kmh SSE 17.0 mph27.4 kmh 29.24 in990.2 mb 0.00 in0.0 mm 0.00 in0.0 mm 0.31 in7.9 mm
12:00 PM 58.5°F14.7°C 54.3°F12.4°C 86% 10.0 mph SSE16.1 kmh SSE 18.0 mph29.0 kmh 29.23 in989.8 mb 0.00 in0.0 mm 0.00 in0.0 mm 0.31 in7.9 mm
12:15 PM 58.3°F14.6°C 53.5°F11.9°C 84% 11.0 mph S17.7 kmh S 19.0 mph30.6 kmh 29.23 in989.8 mb 0.00 in0.0 mm 0.00 in0.0 mm 0.31 in7.9 mm
12:30 PM 57.9°F14.4°C 53.4°F11.9°C 85% 9.0 mph S14.5 kmh S 15.0 mph24.1 kmh 29.23 in989.8 mb 0.00 in0.0 mm 0.00 in0.0 mm 0.31 in7.9 mm
12:45 PM 58.3°F14.6°C 53.8°F12.1°C 85% 8.0 mph SSE12.9 kmh SSE 13.0 mph20.9 kmh 29.23 in989.8 mb 0.00 in0.0 mm 0.00 in0.0 mm 0.31 in7.9 mm
01:00 PM 58.8°F14.9°C 53.7°F12.1°C 83% 7.0 mph SSE11.3 kmh SSE 14.0 mph22.5 kmh 29.22 in989.5 mb 0.00 in0.0 mm 0.00 in0.0 mm 0.31 in7.9 mm
01:15 PM 59.9°F15.5°C 54.1°F12.3°C 81% 7.0 mph SSE11.3 kmh SSE 15.0 mph24.1 kmh 29.22 in989.5 mb 0.00 in0.0 mm 0.00 in0.0 mm 0.31 in7.9 mm
01:30 PM 58.5°F14.7°C 53.3°F11.8°C 83% 8.0 mph SE12.9 kmh SE 13.0 mph20.9 kmh 29.22 in989.5 mb 0.00 in0.0 mm 0.00 in0.0 mm 0.31 in7.9 mm
01:45 PM 57.7°F14.3°C 52.9°F11.6°C 84% 8.0 mph SSE12.9 kmh SSE 16.0 mph25.7 kmh 29.22 in989.5 mb 0.00 in0.0 mm 0.00 in0.0 mm 0.31 in7.9 mm
02:00 PM 57.4°F14.1°C 52.6°F11.4°C 84% 8.0 mph SSE12.9 kmh SSE 15.0 mph24.1 kmh 29.21 in989.2 mb 0.00 in0.0 mm 0.00 in0.0 mm 0.31 in7.9 mm
02:15 PM 57.0°F13.9°C 52.6°F11.4°C 85% 7.0 mph SSE11.3 kmh SSE 15.0 mph24.1 kmh 29.22 in989.5 mb 0.00 in0.0 mm 0.00 in0.0 mm 0.31 in7.9 mm
02:30 PM 57.0°F13.9°C 52.6°F11.4°C 85% 7.0 mph SSE11.3 kmh SSE 16.0 mph25.7 kmh 29.22 in989.5 mb 0.00 in0.0 mm 0.00 in0.0 mm 0.31 in7.9 mm
02:45 PM 56.1°F13.4°C 52.6°F11.4°C 88% 9.0 mph SSE14.5 kmh SSE 18.0 mph29.0 kmh 29.22 in989.5 mb 0.02 in0.5 mm 0.08 in2.0 mm 0.33 in8.4 mm
03:00 PM 55.4°F13.0°C 52.5°F11.4°C 90% 8.0 mph S12.9 kmh S 13.0 mph20.9 kmh 29.22 in989.5 mb 0.02 in0.5 mm 0.00 in0.0 mm 0.33 in8.4 mm
03:15 PM 55.0°F12.8°C 52.5°F11.4°C 91% 7.0 mph S11.3 kmh S 13.0 mph20.9 kmh 29.22 in989.5 mb 0.02 in0.5 mm 0.00 in0.0 mm 0.33 in8.4 mm
03:30 PM 55.0°F12.8°C 52.5°F11.4°C 91% 7.0 mph SSE11.3 kmh SSE 14.0 mph22.5 kmh 29.23 in989.8 mb 0.02 in0.5 mm 0.00 in0.0 mm 0.33 in8.4 mm
03:45 PM 54.9°F12.7°C 52.6°F11.4°C 92% 6.0 mph SSE9.7 kmh SSE 11.0 mph17.7 kmh 29.23 in989.8 mb 0.02 in0.5 mm 0.00 in0.0 mm 0.35 in8.9 mm
04:00 PM 54.7°F12.6°C 52.4°F11.3°C 92% 6.0 mph SSE9.7 kmh SSE 12.0 mph19.3 kmh 29.23 in989.8 mb 0.03 in0.8 mm 0.01 in0.3 mm 0.36 in9.1 mm
04:15 PM 54.7°F12.6°C 52.7°F11.5°C 93% 7.0 mph SSE11.3 kmh SSE 15.0 mph24.1 kmh 29.23 in989.8 mb 0.03 in0.8 mm 0.00 in0.0 mm 0.36 in9.1 mm
04:30 PM 55.0°F12.8°C 53.1°F11.7°C 93% 8.0 mph S12.9 kmh S 15.0 mph24.1 kmh 29.23 in989.8 mb 0.03 in0.8 mm 0.00 in0.0 mm 0.36 in9.1 mm
04:45 PM 55.2°F12.9°C 52.9°F11.6°C 92% 8.0 mph S12.9 kmh S 17.0 mph27.4 kmh 29.23 in989.8 mb 0.01 in0.3 mm 0.00 in0.0 mm 0.36 in9.1 mm
05:00 PM 55.0°F12.8°C 52.5°F11.4°C 91% 7.0 mph S11.3 kmh S 14.0 mph22.5 kmh 29.24 in990.2 mb 0.00 in0.0 mm 0.00 in0.0 mm 0.36 in9.1 mm
05:15 PM 54.9°F12.7°C 52.6°F11.4°C 92% 5.0 mph S8.0 kmh S 10.0 mph16.1 kmh 29.25 in990.5 mb 0.00 in0.0 mm 0.00 in0.0 mm 0.36 in9.1 mm
05:30 PM 54.7°F12.6°C 52.1°F11.2°C 91% 10.0 mph S16.1 kmh S 17.0 mph27.4 kmh 29.26 in990.9 mb 0.00 in0.0 mm 0.00 in0.0 mm 0.36 in9.1 mm
05:45 PM 54.1°F12.3°C 51.0°F10.6°C 89% 10.0 mph S16.1 kmh S 18.0 mph29.0 kmh 29.27 in991.2 mb 0.00 in0.0 mm 0.00 in0.0 mm 0.36 in9.1 mm
06:00 PM 53.6°F12.0°C 49.8°F9.9°C 87% 8.0 mph SSW12.9 kmh SSW 20.0 mph32.2 kmh 29.28 in991.5 mb 0.00 in0.0 mm 0.00 in0.0 mm 0.36 in9.1 mm
06:15 PM 52.9°F11.6°C 49.1°F9.5°C 87% 5.0 mph SSW8.0 kmh SSW 11.0 mph17.7 kmh 29.29 in991.9 mb 0.00 in0.0 mm 0.00 in0.0 mm 0.36 in9.1 mm
06:30 PM 52.0°F11.1°C 48.2°F9.0°C 87% 4.0 mph SW6.4 kmh SW 8.0 mph12.9 kmh 29.29 in991.9 mb 0.00 in0.0 mm 0.00 in0.0 mm 0.36 in9.1 mm
06:45 PM 51.4°F10.8°C 47.7°F8.7°C 87% 5.0 mph SSW8.0 kmh SSW 11.0 mph17.7 kmh 29.30 in992.2 mb 0.00 in0.0 mm 0.00 in0.0 mm 0.36 in9.1 mm
07:00 PM 51.4°F10.8°C 47.7°F8.7°C 87% 5.0 mph SSW8.0 kmh SSW 12.0 mph19.3 kmh 29.31 in992.6 mb 0.00 in0.0 mm 0.00 in0.0 mm 0.36 in9.1 mm
07:15 PM 51.4°F10.8°C 48.0°F8.9°C 88% 6.0 mph S9.7 kmh S 10.0 mph16.1 kmh 29.31 in992.6 mb 0.00 in0.0 mm 0.00 in0.0 mm 0.36 in9.1 mm
07:30 PM 50.9°F10.5°C 46.9°F8.3°C 86% 6.0 mph S9.7 kmh S 14.0 mph22.5 kmh 29.31 in992.6 mb 0.00 in0.0 mm 0.00 in0.0 mm 0.36 in9.1 mm
07:45 PM 50.7°F10.4°C 46.4°F8.0°C 85% 7.0 mph S11.3 kmh S 12.0 mph19.3 kmh 29.32 in992.9 mb 0.00 in0.0 mm 0.00 in0.0 mm 0.36 in9.1 mm
08:00 PM 50.2°F10.1°C 45.8°F7.7°C 85% 5.0 mph S8.0 kmh S 9.0 mph14.5 kmh 29.32 in992.9 mb 0.00 in0.0 mm 0.00 in0.0 mm 0.36 in9.1 mm
08:15 PM 49.6°F9.8°C 45.3°F7.4°C 85% 3.0 mph SSW4.8 kmh SSW 10.0 mph16.1 kmh 29.33 in993.2 mb 0.00 in0.0 mm 0.00 in0.0 mm 0.36 in9.1 mm
08:30 PM 49.5°F9.7°C 45.1°F7.3°C 85% 6.0 mph S9.7 kmh S 12.0 mph19.3 kmh 29.33 in993.2 mb 0.00 in0.0 mm 0.00 in0.0 mm 0.36 in9.1 mm
08:45 PM 49.1°F9.5°C 44.8°F7.1°C 85% 7.0 mph S11.3 kmh S 13.0 mph20.9 kmh 29.34 in993.6 mb 0.00 in0.0 mm 0.00 in0.0 mm 0.36 in9.1 mm
09:00 PM 48.7°F9.3°C 44.7°F7.1°C 86% 5.0 mph S8.0 kmh S 9.0 mph14.5 kmh 29.34 in993.6 mb 0.00 in0.0 mm 0.00 in0.0 mm 0.36 in9.1 mm
09:15 PM 48.4°F9.1°C 44.7°F7.1°C 87% 6.0 mph S9.7 kmh S 12.0 mph19.3 kmh 29.34 in993.6 mb 0.00 in0.0 mm 0.00 in0.0 mm 0.36 in9.1 mm
09:30 PM 48.4°F9.1°C 44.7°F7.1°C 87% 8.0 mph S12.9 kmh S 13.0 mph20.9 kmh 29.34 in993.6 mb 0.00 in0.0 mm 0.00 in0.0 mm 0.36 in9.1 mm
09:45 PM 48.0°F8.9°C 44.3°F6.8°C 87% 7.0 mph S11.3 kmh S 12.0 mph19.3 kmh 29.35 in993.9 mb 0.00 in0.0 mm 0.00 in0.0 mm 0.36 in9.1 mm
10:00 PM 48.0°F8.9°C 44.3°F6.8°C 87% 6.0 mph S9.7 kmh S 12.0 mph19.3 kmh 29.35 in993.9 mb 0.00 in0.0 mm 0.00 in0.0 mm 0.36 in9.1 mm
10:15 PM 47.7°F8.7°C 44.0°F6.7°C 87% 6.0 mph S9.7 kmh S 11.0 mph17.7 kmh 29.35 in993.9 mb 0.00 in0.0 mm 0.00 in0.0 mm 0.36 in9.1 mm
10:30 PM 47.3°F8.5°C 43.6°F6.4°C 87% 4.0 mph S6.4 kmh S 8.0 mph12.9 kmh 29.36 in994.2 mb 0.00 in0.0 mm 0.00 in0.0 mm 0.36 in9.1 mm
10:45 PM 46.9°F8.3°C 43.3°F6.3°C 87% 5.0 mph S8.0 kmh S 8.0 mph12.9 kmh 29.36 in994.2 mb 0.00 in0.0 mm 0.00 in0.0 mm 0.36 in9.1 mm
11:00 PM 46.6°F8.1°C 43.2°F6.2°C 88% 4.0 mph S6.4 kmh S 8.0 mph12.9 kmh 29.35 in993.9 mb 0.00 in0.0 mm 0.00 in0.0 mm 0.36 in9.1 mm
11:15 PM 46.0°F7.8°C 42.7°F5.9°C 88% 2.0 mph S3.2 kmh S 4.0 mph6.4 kmh 29.35 in993.9 mb 0.00 in0.0 mm 0.00 in0.0 mm 0.36 in9.1 mm
11:30 PM 45.5°F7.5°C 42.2°F5.7°C 88% 3.0 mph SSE4.8 kmh SSE 5.0 mph8.0 kmh 29.35 in993.9 mb 0.00 in0.0 mm 0.00 in0.0 mm 0.36 in9.1 mm
11:45 PM 45.0°F7.2°C 41.9°F5.5°C 89% 2.0 mph S3.2 kmh S 4.0 mph6.4 kmh 29.35 in993.9 mb 0.00 in0.0 mm 0.00 in0.0 mm 0.36 in9.1 mm